Airfield :
LOGIN :

Register | Disclaimer

   EN    FR    IT 

 










Legend :    VFR   Marginal VFR   IFR   Intensive IFR   Very Intensive IFR
Visi :
Ceiling :
>= 8 km
>= 3000ft
5 to 8 km
1000 to 3000 ft
1500m to 5 km
500 to 1000 ft
800 to 1500m
200 to 500 ft
< 800m
< 200 ft
Symbols :   Thunderstorms  Fog  Heavy snow  Heavy precipitations  Wind > 20 kt
SIGMETs :     Misc.  Thunderstorms  Icing  Turbulence  Mountain Waves  Volcanic Ashes







- Airport Elevation : 10 ft
- IATA code : AAL


EKYT - Aalborg

CURRENT METAR :
  • 232220Z AUTO 09022KT 9999 NCD 14/M00 Q1013

EXPIRED METARs :
  • 232150Z AUTO 10020KT 9999 NCD 14/M00 Q1013
  • 232120Z AUTO 08019KT 9999 NCD 13/01 Q1013
  • 232115Z 08018KT CAVOK 13/01 Q1013
  • 232050Z AUTO 08017KT 9999 NCD 13/01 Q1014 BLSA
  • 232040Z 08016KT CAVOK 13/01 Q1014
  • 232006Z 08016KT CAVOK 13/00 Q1014
  • 231950Z AUTO 10017KT 9999 NCD 14/M00 Q1014 BLSA

TAF TAF EKYT
Valid from the 23 at 21:00 until the 24 at 21:00 UTC


232018Z 2321/2421 11016KT 9999 FEW050 BKN100
TEMPO 2400/2417 09018G28KT 7000 -SHRA SCT030 BKN060CB
No reported NOTAMs for that airfield.



MET'MAP, your aeronautical weather chart ! - Copyright ORBIFLY December 2007 - Disclaimer

ORBIFLY MET'MAP TEAM :

Programming & Development : Alexandra Zaïnal
Concept & Development : Baudouin d'Aumeries
Co-Development & Prog : Marc-Olivier Méhu
Technical & hardware support : Manuel Goepfert

Contact : metmap@orbifly.com




SOURCES & CREDITS :

   NOAA